createdAt,value
2022-10-02T00:00:36.206Z,12.60
2022-10-02T00:03:10.341Z,12.50
2022-10-02T00:05:43.607Z,12.60
2022-10-02T00:08:19.779Z,12.70
2022-10-02T00:11:17.140Z,12.60
2022-10-02T00:13:51.754Z,12.60
2022-10-02T00:16:24.691Z,12.60
2022-10-02T00:18:54.888Z,12.60
2022-10-02T00:21:57.524Z,12.60
2022-10-02T00:24:32.098Z,12.60
2022-10-02T00:27:22.068Z,12.60
2022-10-02T00:29:52.901Z,12.60
2022-10-02T00:32:59.675Z,12.60
2022-10-02T00:36:00.072Z,12.60
2022-10-02T00:38:48.333Z,12.50
2022-10-02T00:41:39.533Z,12.40
2022-10-02T00:44:40.677Z,12.30
2022-10-02T00:47:42.020Z,12.30
2022-10-02T00:50:50.820Z,12.30
2022-10-02T00:53:43.088Z,12.20
2022-10-02T00:56:41.475Z,12.20
2022-10-02T00:59:34.187Z,12.30
2022-10-02T01:02:25.235Z,12.20
2022-10-02T01:04:53.004Z,12.10
2022-10-02T01:07:20.729Z,12.10
2022-10-02T01:09:48.170Z,12.10
2022-10-02T01:12:15.724Z,12.30
2022-10-02T01:14:42.887Z,12.20
2022-10-02T01:17:26.879Z,12.30
2022-10-02T01:19:55.809Z,12.30
2022-10-02T01:22:31.044Z,12.20
2022-10-02T01:25:04.354Z,12.30
2022-10-02T01:27:35.452Z,12.30
2022-10-02T01:30:09.520Z,12.40
2022-10-02T01:32:42.494Z,12.40
2022-10-02T01:35:10.683Z,12.40
2022-10-02T01:37:40.996Z,12.40
2022-10-02T01:40:22.190Z,12.40
2022-10-02T01:42:50.324Z,12.40
2022-10-02T01:45:17.716Z,12.50
2022-10-02T01:47:55.974Z,12.40
2022-10-02T01:50:32.647Z,12.60
2022-10-02T01:53:22.817Z,12.50
2022-10-02T01:56:09.536Z,12.60
2022-10-02T01:59:05.225Z,12.60
2022-10-02T02:02:05.443Z,12.50
2022-10-02T02:04:41.419Z,12.50
2022-10-02T02:07:28.176Z,12.50
2022-10-02T02:10:11.534Z,12.40
2022-10-02T02:12:50.176Z,12.40
2022-10-02T02:15:29.712Z,12.30
2022-10-02T02:18:28.248Z,12.30
2022-10-02T02:21:00.006Z,12.30
2022-10-02T02:23:32.465Z,12.30
2022-10-02T02:26:05.659Z,12.30
2022-10-02T02:28:34.123Z,12.30
2022-10-02T02:31:05.448Z,12.30
2022-10-02T02:33:42.453Z,12.30
2022-10-02T02:36:13.392Z,12.20
2022-10-02T02:38:45.940Z,12.40
2022-10-02T02:41:15.366Z,12.30
2022-10-02T02:44:06.164Z,12.20
2022-10-02T02:46:59.576Z,12.30
2022-10-02T02:49:30.085Z,12.30
2022-10-02T02:52:00.743Z,12.30
2022-10-02T02:54:37.704Z,12.30
2022-10-02T02:57:07.814Z,12.30
2022-10-02T02:59:38.875Z,12.40
2022-10-02T03:02:06.106Z,12.30
2022-10-02T03:04:33.291Z,12.30
2022-10-02T03:07:03.917Z,12.30
2022-10-02T03:09:33.379Z,12.30
2022-10-02T03:12:27.710Z,12.20
2022-10-02T03:15:06.873Z,12.30
2022-10-02T03:17:45.630Z,12.30
2022-10-02T03:20:47.394Z,12.30
2022-10-02T03:23:20.151Z,12.30
2022-10-02T03:25:53.205Z,12.30
2022-10-02T03:28:54.964Z,12.30
2022-10-02T03:31:27.296Z,12.40
2022-10-02T03:33:55.616Z,12.40
2022-10-02T03:36:24.663Z,12.30
2022-10-02T03:39:19.933Z,12.20
2022-10-02T03:41:43.438Z,12.40
2022-10-02T03:44:10.658Z,12.40
2022-10-02T03:46:38.206Z,12.30
2022-10-02T03:49:05.720Z,12.40
2022-10-02T03:51:32.992Z,12.30
2022-10-02T03:54:00.225Z,12.30
2022-10-02T03:56:40.049Z,12.20
2022-10-02T03:59:30.148Z,12.30
2022-10-02T04:01:59.990Z,12.30
2022-10-02T04:04:37.513Z,12.40
2022-10-02T04:07:10.622Z,12.40
2022-10-02T04:09:43.403Z,12.50
2022-10-02T04:12:34.116Z,12.30
2022-10-02T04:15:02.913Z,12.40
2022-10-02T04:17:44.292Z,12.30
2022-10-02T04:20:20.124Z,12.40
2022-10-02T04:22:55.870Z,12.40
2022-10-02T04:25:27.479Z,12.40
2022-10-02T04:28:03.517Z,12.40
2022-10-02T04:30:30.711Z,12.40
2022-10-02T04:33:18.157Z,12.40
2022-10-02T04:35:45.320Z,12.40
2022-10-02T04:38:26.301Z,12.50
2022-10-02T04:41:08.615Z,12.40
2022-10-02T04:44:05.326Z,12.50
2022-10-02T04:46:35.781Z,12.50
2022-10-02T04:49:21.822Z,12.50
2022-10-02T04:52:26.745Z,12.50
2022-10-02T04:55:18.472Z,12.50
2022-10-02T04:58:26.677Z,12.50
2022-10-02T05:01:34.227Z,12.50
2022-10-02T05:04:20.318Z,12.60
2022-10-02T05:07:03.717Z,12.60
2022-10-02T05:09:47.732Z,12.50
2022-10-02T05:12:14.848Z,12.60
2022-10-02T05:14:54.318Z,12.60
2022-10-02T05:17:51.766Z,12.60
2022-10-02T05:20:34.274Z,12.60
2022-10-02T05:23:18.389Z,12.60
2022-10-02T05:26:19.752Z,12.60
2022-10-02T05:28:59.648Z,12.60
2022-10-02T05:31:29.833Z,12.60
2022-10-02T05:34:06.000Z,12.70
2022-10-02T05:36:52.941Z,12.60
2022-10-02T05:39:30.750Z,12.60
2022-10-02T05:42:06.381Z,12.60
2022-10-02T05:44:39.083Z,12.70
2022-10-02T05:47:19.248Z,12.60
2022-10-02T05:49:58.247Z,12.70
2022-10-02T05:52:35.896Z,12.70
2022-10-02T05:55:24.593Z,12.70
2022-10-02T05:57:57.684Z,12.70
2022-10-02T06:00:51.999Z,12.90
2022-10-02T06:03:33.909Z,12.80
2022-10-02T06:06:15.981Z,12.70
2022-10-02T06:09:11.001Z,12.80
2022-10-02T06:12:03.361Z,12.80
2022-10-02T06:14:56.536Z,12.80
2022-10-02T06:17:47.733Z,12.80
2022-10-02T06:20:33.004Z,12.80
2022-10-02T06:23:15.763Z,12.80
2022-10-02T06:26:39.956Z,12.80
2022-10-02T06:29:32.509Z,12.90
2022-10-02T06:32:18.072Z,12.90
2022-10-02T06:34:47.946Z,12.80
2022-10-02T06:37:21.532Z,12.80
2022-10-02T06:40:03.820Z,13.00
2022-10-02T06:43:01.197Z,12.80
2022-10-02T06:45:46.673Z,12.80
2022-10-02T06:48:29.797Z,12.80
2022-10-02T06:51:10.332Z,12.80
2022-10-02T06:53:57.652Z,12.80
2022-10-02T06:56:43.666Z,12.80
2022-10-02T06:59:55.325Z,12.80
2022-10-02T07:02:52.776Z,12.90
2022-10-02T07:05:33.565Z,12.80
2022-10-02T07:08:05.073Z,12.80
2022-10-02T07:11:10.245Z,13.00
2022-10-02T07:14:04.403Z,12.90
2022-10-02T07:16:50.847Z,12.90
2022-10-02T07:19:39.051Z,12.90
2022-10-02T07:22:43.265Z,12.90
2022-10-02T07:25:54.494Z,13.00
2022-10-02T07:28:36.679Z,13.00
2022-10-02T07:31:18.787Z,13.10
2022-10-02T07:34:16.707Z,13.00
2022-10-02T07:36:55.988Z,13.10
2022-10-02T07:39:35.132Z,13.10
2022-10-02T07:42:14.491Z,13.10
2022-10-02T07:45:09.412Z,13.10
2022-10-02T07:48:08.023Z,13.10
2022-10-02T07:51:04.182Z,13.10
2022-10-02T07:53:49.617Z,13.10
2022-10-02T07:56:22.525Z,13.30
2022-10-02T07:58:57.620Z,13.20
2022-10-02T08:01:28.079Z,13.30
2022-10-02T08:04:18.728Z,13.20
2022-10-02T08:06:48.187Z,13.30
2022-10-02T08:09:33.617Z,13.30
2022-10-02T08:12:21.861Z,13.40
2022-10-02T08:14:52.546Z,13.40
2022-10-02T08:17:29.106Z,13.50
2022-10-02T08:20:19.185Z,13.40
2022-10-02T08:23:09.559Z,13.50
2022-10-02T08:25:45.053Z,13.50
2022-10-02T08:28:22.360Z,13.60
2022-10-02T08:30:50.692Z,13.60
2022-10-02T08:33:22.693Z,13.70
2022-10-02T08:36:04.928Z,13.80
2022-10-02T08:38:41.541Z,13.80
2022-10-02T08:41:38.946Z,13.80
2022-10-02T08:44:27.640Z,13.90
2022-10-02T08:47:33.024Z,13.90
2022-10-02T08:50:19.907Z,14.00
2022-10-02T08:53:11.565Z,14.20
2022-10-02T08:55:58.903Z,14.30
2022-10-02T08:58:57.948Z,14.40
2022-10-02T09:01:59.582Z,14.30
2022-10-02T09:05:11.911Z,14.40
2022-10-02T09:08:16.509Z,14.30
2022-10-02T09:11:19.328Z,14.30
2022-10-02T09:14:11.513Z,14.30
2022-10-02T09:17:13.302Z,14.40
2022-10-02T09:19:46.577Z,14.50
2022-10-02T09:22:38.481Z,14.60
2022-10-02T09:25:37.244Z,14.70
2022-10-02T09:28:25.813Z,14.80
2022-10-02T09:31:19.039Z,14.90
2022-10-02T09:34:31.004Z,15.00
2022-10-02T09:37:28.243Z,15.10
2022-10-02T09:40:20.109Z,15.40
2022-10-02T09:43:09.695Z,15.30
2022-10-02T09:45:52.817Z,15.40
2022-10-02T09:48:37.935Z,15.40
2022-10-02T09:51:12.362Z,15.50
2022-10-02T09:54:10.387Z,15.50
2022-10-02T09:56:49.569Z,15.40
2022-10-02T09:59:22.781Z,15.40
2022-10-02T10:02:08.576Z,15.50
2022-10-02T10:05:06.383Z,15.50
2022-10-02T10:08:01.263Z,15.60
2022-10-02T10:10:49.335Z,15.80
2022-10-02T10:13:24.510Z,15.80
2022-10-02T10:16:19.953Z,16.00
2022-10-02T10:19:29.773Z,15.90
2022-10-02T10:22:21.210Z,16.00
2022-10-02T10:25:13.348Z,16.10
2022-10-02T10:27:49.498Z,16.20
2022-10-02T10:30:44.471Z,16.30
2022-10-02T10:33:32.169Z,16.40
2022-10-02T10:36:56.564Z,16.60
2022-10-02T10:39:45.942Z,16.60
2022-10-02T10:43:06.594Z,16.70
2022-10-02T10:46:12.166Z,16.70
2022-10-02T10:49:09.533Z,16.70
2022-10-02T10:52:03.930Z,16.80
2022-10-02T10:54:57.279Z,16.90
2022-10-02T10:57:25.875Z,17.00
2022-10-02T11:00:15.985Z,17.20
2022-10-02T11:02:54.509Z,17.40
2022-10-02T11:05:31.185Z,17.60
2022-10-02T11:08:28.719Z,17.80
2022-10-02T11:11:16.108Z,18.10
2022-10-02T11:13:52.540Z,18.30
2022-10-02T11:16:48.975Z,18.40
2022-10-02T11:19:28.082Z,18.40
2022-10-02T11:22:29.642Z,18.40
2022-10-02T11:25:12.535Z,18.40
2022-10-02T11:27:40.137Z,18.20
2022-10-02T11:30:20.543Z,18.20
2022-10-02T11:33:18.572Z,18.20
2022-10-02T11:36:20.684Z,18.10
2022-10-02T11:39:12.272Z,18.30
2022-10-02T11:41:46.703Z,18.40
2022-10-02T11:44:14.047Z,18.60
2022-10-02T11:47:04.701Z,18.60
2022-10-02T11:50:15.549Z,18.80
2022-10-02T11:53:10.288Z,18.90
2022-10-02T11:56:22.154Z,19.10
2022-10-02T11:59:18.186Z,19.20
2022-10-02T12:01:51.024Z,19.30
2022-10-02T12:04:39.008Z,19.40
2022-10-02T12:07:34.154Z,19.30
2022-10-02T12:10:30.441Z,19.40
2022-10-02T12:13:25.322Z,19.40
2022-10-02T12:16:27.473Z,19.30
2022-10-02T12:19:06.427Z,19.20
2022-10-02T12:22:07.785Z,19.20
2022-10-02T12:25:14.509Z,19.10
2022-10-02T12:28:07.192Z,18.90
2022-10-02T12:31:01.149Z,18.90
2022-10-02T12:34:03.682Z,19.20
2022-10-02T12:36:56.482Z,19.60
2022-10-02T12:39:40.001Z,19.70
2022-10-02T12:42:30.828Z,19.70
2022-10-02T12:45:19.979Z,19.50
2022-10-02T12:48:00.111Z,19.50
2022-10-02T12:50:55.270Z,19.50
2022-10-02T12:53:41.376Z,19.60
2022-10-02T12:56:20.601Z,19.60
2022-10-02T12:58:56.738Z,19.80
2022-10-02T13:02:06.101Z,19.70
2022-10-02T13:04:57.354Z,19.70
2022-10-02T13:07:46.489Z,19.60
2022-10-02T13:10:24.565Z,19.40
2022-10-02T13:13:03.069Z,19.30
2022-10-02T13:15:37.221Z,19.20
2022-10-02T13:18:10.315Z,19.10
2022-10-02T13:21:15.216Z,19.20
2022-10-02T13:24:05.380Z,19.20
2022-10-02T13:26:38.654Z,19.10
2022-10-02T13:29:29.281Z,19.00
2022-10-02T13:32:15.908Z,18.70
2022-10-02T13:35:28.138Z,18.50
2022-10-02T13:38:20.197Z,18.30
2022-10-02T13:41:28.532Z,17.40
2022-10-02T13:44:35.624Z,16.50
2022-10-02T13:47:11.522Z,15.50
2022-10-02T13:50:05.833Z,15.30
2022-10-02T13:52:52.423Z,15.10
2022-10-02T13:55:24.645Z,15.20
2022-10-02T13:58:13.143Z,15.20
2022-10-02T14:01:21.886Z,15.10
2022-10-02T14:04:03.727Z,14.90
2022-10-02T14:07:00.734Z,14.80
2022-10-02T14:09:41.844Z,14.70
2022-10-02T14:12:20.400Z,14.70
2022-10-02T14:15:15.060Z,14.60
2022-10-02T14:18:20.395Z,14.50
2022-10-02T14:21:17.341Z,14.40
2022-10-02T14:23:59.175Z,14.20
2022-10-02T14:26:54.246Z,14.20
2022-10-02T14:30:00.475Z,14.30
2022-10-02T14:33:00.120Z,14.30
2022-10-02T14:35:41.551Z,14.30
2022-10-02T14:53:30.115Z,13.50
2022-10-02T14:56:34.618Z,13.40
2022-10-02T14:59:10.608Z,13.30
2022-10-02T15:01:50.626Z,13.40
2022-10-02T15:04:44.859Z,13.50
2022-10-02T15:07:14.477Z,13.50
2022-10-02T15:10:00.051Z,13.70
2022-10-02T15:12:33.983Z,13.70
2022-10-02T15:15:30.630Z,13.70
2022-10-02T15:18:17.692Z,13.70
2022-10-02T15:21:01.292Z,13.70
2022-10-02T15:23:45.012Z,13.70
2022-10-02T15:26:27.165Z,13.50
2022-10-02T15:29:22.264Z,13.40
2022-10-02T15:32:27.098Z,13.40
2022-10-02T15:35:06.505Z,13.40
2022-10-02T15:38:01.359Z,13.30
2022-10-02T15:40:52.369Z,13.30
2022-10-02T15:43:57.981Z,13.40
2022-10-02T15:46:31.355Z,13.30
2022-10-02T15:49:23.969Z,13.30
2022-10-02T15:52:09.720Z,13.40
2022-10-02T15:54:54.147Z,13.40
2022-10-02T15:57:35.832Z,13.40
2022-10-02T16:00:14.305Z,13.40
2022-10-02T16:03:00.092Z,13.50
2022-10-02T16:05:50.166Z,13.50
2022-10-02T16:08:36.167Z,13.40
2022-10-02T16:11:03.290Z,13.40
2022-10-02T16:14:01.991Z,13.60
2022-10-02T16:16:41.636Z,13.40
2022-10-02T16:19:47.839Z,13.40
2022-10-02T16:22:39.262Z,13.40
2022-10-02T16:25:22.171Z,13.40
2022-10-02T16:28:18.798Z,13.40
2022-10-02T16:30:52.604Z,13.40
2022-10-02T16:33:26.108Z,13.30
2022-10-02T16:36:20.177Z,13.30
2022-10-02T16:38:56.574Z,13.30
2022-10-02T16:41:26.484Z,13.30
2022-10-02T16:44:10.060Z,13.30
2022-10-02T16:46:44.753Z,13.30
2022-10-02T16:49:23.593Z,13.30
2022-10-02T16:52:18.553Z,13.20
2022-10-02T16:54:53.560Z,13.20
2022-10-02T16:57:39.039Z,13.20
2022-10-02T17:00:10.802Z,13.20
2022-10-02T17:02:46.431Z,13.20
2022-10-02T17:05:26.895Z,13.20
2022-10-02T17:08:14.070Z,13.20
2022-10-02T17:11:03.940Z,13.20
2022-10-02T17:14:14.578Z,13.20
2022-10-02T17:16:54.091Z,13.20
2022-10-02T17:19:49.972Z,13.20
2022-10-02T17:22:39.252Z,13.30
2022-10-02T17:25:36.637Z,13.30
2022-10-02T17:28:03.761Z,13.30
2022-10-02T17:30:54.796Z,13.30
2022-10-02T17:33:26.887Z,13.20
2022-10-02T17:36:22.855Z,13.30
2022-10-02T17:38:57.924Z,13.20
2022-10-02T17:41:34.967Z,13.10
2022-10-02T17:44:33.852Z,13.10
2022-10-02T17:47:25.184Z,13.10
2022-10-02T17:50:13.558Z,13.10
2022-10-02T17:53:07.431Z,13.10
2022-10-02T17:56:23.581Z,13.10
2022-10-02T17:58:59.695Z,13.10
2022-10-02T18:01:45.856Z,13.20
2022-10-02T18:04:46.436Z,13.10
2022-10-02T18:07:31.013Z,13.10
2022-10-02T18:10:23.342Z,13.10
2022-10-02T18:13:15.569Z,13.00
2022-10-02T18:15:46.123Z,13.00
2022-10-02T18:18:51.030Z,13.00
2022-10-02T18:21:29.838Z,13.10
2022-10-02T18:24:00.027Z,13.00
2022-10-02T18:26:51.861Z,13.00
2022-10-02T18:29:27.868Z,13.00
2022-10-02T18:32:17.140Z,13.00
2022-10-02T18:35:14.021Z,13.00
2022-10-02T18:38:08.037Z,12.90
2022-10-02T18:41:19.156Z,12.90
2022-10-02T18:44:34.813Z,12.80
2022-10-02T18:47:16.723Z,12.80
2022-10-02T18:49:51.743Z,12.80
2022-10-02T18:52:57.140Z,12.80
2022-10-02T18:55:46.587Z,12.90
2022-10-02T18:58:45.933Z,12.90
2022-10-02T19:01:40.431Z,12.90
2022-10-02T19:04:16.455Z,12.80
2022-10-02T19:06:56.755Z,12.80
2022-10-02T19:09:28.754Z,12.80
2022-10-02T19:12:06.319Z,12.90
2022-10-02T19:14:36.784Z,12.80
2022-10-02T19:17:11.016Z,12.80
2022-10-02T19:19:39.954Z,12.80
2022-10-02T19:22:19.485Z,12.80
2022-10-02T19:24:53.907Z,12.70
2022-10-02T19:27:28.347Z,12.80
2022-10-02T19:30:00.033Z,12.80
2022-10-02T19:32:31.546Z,12.80
2022-10-02T19:35:25.571Z,12.80
2022-10-02T19:37:56.445Z,12.70
2022-10-02T19:40:33.438Z,12.70
2022-10-02T19:43:24.527Z,12.80
2022-10-02T19:45:56.786Z,12.80
2022-10-02T19:48:29.439Z,12.80
2022-10-02T19:51:03.044Z,12.70
2022-10-02T19:53:44.029Z,12.60
2022-10-02T19:56:31.861Z,12.70
2022-10-02T19:59:14.584Z,12.60
2022-10-02T20:01:53.682Z,12.50
2022-10-02T20:04:24.262Z,12.50
2022-10-02T20:06:55.839Z,12.50
2022-10-02T20:09:28.398Z,12.60
2022-10-02T20:12:01.072Z,12.50
2022-10-02T20:14:42.461Z,12.50
2022-10-02T20:17:12.670Z,12.50
2022-10-02T20:19:57.624Z,12.50
2022-10-02T20:22:37.736Z,12.40
2022-10-02T20:25:26.413Z,12.30
2022-10-02T20:28:05.628Z,12.30
2022-10-02T20:30:43.017Z,12.30
2022-10-02T20:33:15.794Z,12.30
2022-10-02T20:35:46.866Z,12.10
2022-10-02T20:38:20.265Z,12.20
2022-10-02T20:40:53.086Z,12.10
2022-10-02T20:43:32.597Z,12.10
2022-10-02T20:46:27.930Z,12.10
2022-10-02T20:49:22.483Z,12.10
2022-10-02T20:52:08.293Z,12.20
2022-10-02T20:54:38.241Z,12.10
2022-10-02T20:57:16.645Z,12.10
2022-10-02T20:59:56.094Z,12.10
2022-10-02T21:02:51.480Z,12.10
2022-10-02T21:05:56.484Z,12.10
2022-10-02T21:08:36.931Z,12.10
2022-10-02T21:11:15.689Z,12.10
2022-10-02T21:14:21.895Z,12.00
2022-10-02T21:17:00.613Z,12.00
2022-10-02T21:19:30.879Z,11.90
2022-10-02T21:22:16.943Z,11.90
2022-10-02T21:25:26.799Z,11.90
2022-10-02T21:28:31.254Z,11.80
2022-10-02T21:31:11.406Z,11.80
2022-10-02T21:33:50.565Z,11.80
2022-10-02T21:36:33.609Z,11.80
2022-10-02T21:39:12.860Z,11.80
2022-10-02T21:41:55.184Z,11.90
2022-10-02T21:45:06.310Z,11.80
2022-10-02T21:48:04.503Z,11.80
2022-10-02T21:50:50.779Z,11.90
2022-10-02T21:54:03.129Z,11.90
2022-10-02T21:57:02.468Z,11.90
2022-10-02T21:59:44.339Z,11.90
2022-10-02T22:02:31.901Z,11.90
2022-10-02T22:05:14.095Z,12.00
2022-10-02T22:07:59.383Z,12.00
2022-10-02T22:10:29.561Z,12.00
2022-10-02T22:13:15.426Z,12.00
2022-10-02T22:16:01.954Z,12.00
2022-10-02T22:19:04.085Z,12.00
2022-10-02T22:22:02.037Z,12.00
2022-10-02T22:24:53.763Z,12.00
2022-10-02T22:27:58.745Z,12.00
2022-10-02T22:30:31.627Z,12.00
2022-10-02T22:33:31.751Z,12.00
2022-10-02T22:36:15.742Z,12.00
2022-10-02T22:39:02.912Z,12.00
2022-10-02T22:41:40.671Z,12.00
2022-10-02T22:44:17.878Z,12.00
2022-10-02T22:47:15.629Z,12.00
2022-10-02T22:49:59.334Z,12.00
2022-10-02T22:52:45.809Z,12.00
2022-10-02T22:55:26.289Z,12.10
2022-10-02T22:58:28.995Z,12.00
2022-10-02T23:01:21.481Z,12.00
2022-10-02T23:03:58.158Z,12.10
2022-10-02T23:07:02.445Z,12.10
2022-10-02T23:09:29.622Z,12.10
2022-10-02T23:12:37.969Z,12.00
2022-10-02T23:15:29.997Z,12.00
2022-10-02T23:18:04.988Z,12.10
2022-10-02T23:20:50.080Z,12.10
2022-10-02T23:23:17.270Z,12.00
2022-10-02T23:25:49.780Z,11.90
2022-10-02T23:28:43.612Z,11.90
2022-10-02T23:31:24.368Z,11.80
2022-10-02T23:34:17.931Z,11.80
2022-10-02T23:36:58.789Z,11.70
2022-10-02T23:39:50.867Z,11.80
2022-10-02T23:42:47.711Z,11.70
2022-10-02T23:45:54.296Z,11.70
2022-10-02T23:48:21.618Z,11.60
2022-10-02T23:51:14.490Z,11.60
2022-10-02T23:53:47.554Z,11.60
2022-10-02T23:56:43.176Z,11.60
2022-10-02T23:59:29.213Z,11.50
